createdAt,value
2017-06-14T00:01:10.771Z,62.60
2017-06-14T00:03:38.851Z,61.90
2017-06-14T00:06:06.932Z,63.20
2017-06-14T00:08:35.015Z,62.40
2017-06-14T00:11:03.099Z,62.40
2017-06-14T00:13:31.196Z,62.60
2017-06-14T00:15:59.284Z,63.90
2017-06-14T00:18:27.374Z,63.70
2017-06-14T00:20:55.467Z,64.60
2017-06-14T00:23:23.771Z,63.90
2017-06-14T00:25:51.867Z,63.60
2017-06-14T00:28:19.967Z,63.50
2017-06-14T00:30:48.042Z,63.00
2017-06-14T00:33:16.119Z,62.40
2017-06-14T00:35:45.010Z,62.60
2017-06-14T00:38:13.100Z,62.50
2017-06-14T00:40:41.185Z,63.00
2017-06-14T00:43:09.316Z,63.20
2017-06-14T00:45:37.412Z,64.00
2017-06-14T00:48:05.503Z,65.30
2017-06-14T00:50:33.587Z,64.30
2017-06-14T00:53:01.659Z,64.20
2017-06-14T00:55:29.751Z,64.30
2017-06-14T00:57:57.849Z,65.40
2017-06-14T01:00:25.924Z,64.80
2017-06-14T01:02:53.997Z,64.50
2017-06-14T01:05:22.118Z,64.80
2017-06-14T01:07:50.190Z,64.50
2017-06-14T01:10:18.254Z,64.80
2017-06-14T01:12:46.332Z,66.10
2017-06-14T01:15:14.420Z,65.90
2017-06-14T01:17:42.502Z,65.90
2017-06-14T01:20:10.584Z,66.00
2017-06-14T01:22:38.665Z,67.40
2017-06-14T01:25:06.733Z,66.80
2017-06-14T01:27:34.804Z,66.20
2017-06-14T01:30:02.889Z,65.90
2017-06-14T01:32:30.965Z,65.30
2017-06-14T01:34:59.057Z,65.90
2017-06-14T01:37:27.130Z,65.60
2017-06-14T01:39:55.208Z,65.40
2017-06-14T01:42:23.291Z,67.70
2017-06-14T01:44:51.393Z,67.30
2017-06-14T01:47:19.472Z,66.70
2017-06-14T01:49:47.545Z,66.80
2017-06-14T01:52:15.624Z,67.20
2017-06-14T01:54:43.693Z,68.90
2017-06-14T01:57:11.776Z,68.10
2017-06-14T01:59:40.633Z,67.40
2017-06-14T02:02:08.726Z,66.80
2017-06-14T02:04:36.797Z,67.70
2017-06-14T02:07:04.897Z,68.20
2017-06-14T02:09:32.978Z,67.60
2017-06-14T02:12:01.058Z,68.10
2017-06-14T02:14:29.163Z,68.40
2017-06-14T02:16:57.229Z,68.30
2017-06-14T02:19:25.310Z,67.80
2017-06-14T02:21:53.380Z,68.20
2017-06-14T02:24:21.501Z,69.00
2017-06-14T02:26:49.573Z,69.00
2017-06-14T02:29:17.652Z,70.20
2017-06-14T02:31:45.726Z,71.10
2017-06-14T02:34:13.787Z,70.80
2017-06-14T02:36:42.121Z,71.60
2017-06-14T02:39:10.404Z,72.60
2017-06-14T02:41:38.561Z,73.40
2017-06-14T02:44:06.746Z,73.10
2017-06-14T02:46:35.021Z,72.80
2017-06-14T02:49:03.168Z,72.50
2017-06-14T02:51:31.265Z,73.10
2017-06-14T02:53:59.345Z,72.70
2017-06-14T02:56:27.441Z,71.80
2017-06-14T02:58:55.519Z,70.90
2017-06-14T03:01:23.590Z,72.30
2017-06-14T03:03:51.670Z,73.50
2017-06-14T03:06:19.741Z,74.10
2017-06-14T03:08:47.838Z,72.90
2017-06-14T03:11:15.907Z,71.60
2017-06-14T03:13:44.002Z,71.60
2017-06-14T03:16:12.073Z,71.20
2017-06-14T03:18:40.157Z,71.50
2017-06-14T03:21:08.225Z,71.50
2017-06-14T03:23:36.304Z,72.70
2017-06-14T03:26:04.377Z,71.90
2017-06-14T03:28:32.466Z,72.20
2017-06-14T03:31:00.541Z,70.70
2017-06-14T03:33:28.612Z,70.80
2017-06-14T03:35:56.705Z,70.60
2017-06-14T03:38:24.778Z,71.10
2017-06-14T03:40:52.868Z,72.30
2017-06-14T03:43:20.980Z,72.50
2017-06-14T03:45:49.069Z,72.50
2017-06-14T03:48:17.146Z,74.80
2017-06-14T03:50:45.241Z,76.20
2017-06-14T03:53:13.333Z,75.20
2017-06-14T03:55:41.401Z,74.60
2017-06-14T03:58:09.492Z,74.90
2017-06-14T04:00:37.558Z,74.90
2017-06-14T04:03:05.633Z,74.60
2017-06-14T04:05:33.704Z,73.60
2017-06-14T04:08:01.778Z,73.60
2017-06-14T04:10:29.855Z,74.40
2017-06-14T04:12:57.947Z,76.30
2017-06-14T04:15:26.029Z,76.50
2017-06-14T04:17:54.096Z,75.90
2017-06-14T04:20:22.188Z,74.30
2017-06-14T04:22:50.261Z,72.50
2017-06-14T04:25:18.344Z,71.30
2017-06-14T04:27:46.408Z,70.40
2017-06-14T04:30:14.479Z,69.20
2017-06-14T04:32:42.557Z,68.10
2017-06-14T04:35:10.652Z,67.80
2017-06-14T04:37:38.732Z,68.10
2017-06-14T04:40:06.802Z,67.50
2017-06-14T04:42:34.884Z,66.30
2017-06-14T04:45:02.963Z,65.50
2017-06-14T04:47:31.041Z,65.10
2017-06-14T04:49:59.109Z,65.00
2017-06-14T04:52:27.196Z,64.00
2017-06-14T04:54:55.276Z,63.80
2017-06-14T04:57:23.352Z,63.40
2017-06-14T04:59:51.449Z,62.80
2017-06-14T05:02:19.546Z,62.70
2017-06-14T05:04:47.702Z,62.20
2017-06-14T05:07:15.769Z,61.80
2017-06-14T05:09:43.848Z,61.70
2017-06-14T05:12:11.918Z,60.50
2017-06-14T05:14:39.993Z,60.50
2017-06-14T05:17:08.075Z,60.20
2017-06-14T05:19:36.141Z,59.50
2017-06-14T05:22:04.213Z,59.60
2017-06-14T05:24:32.281Z,60.00
2017-06-14T05:27:00.364Z,59.00
2017-06-14T05:29:28.449Z,58.90
2017-06-14T05:31:56.533Z,57.90
2017-06-14T05:34:24.793Z,57.20
2017-06-14T05:36:53.063Z,56.10
2017-06-14T05:39:21.136Z,56.00
2017-06-14T05:41:49.211Z,55.60
2017-06-14T05:44:17.288Z,54.60
2017-06-14T05:46:45.362Z,54.80
2017-06-14T05:49:13.664Z,53.30
2017-06-14T05:51:41.737Z,53.10
2017-06-14T05:54:09.808Z,52.90
2017-06-14T05:56:37.908Z,53.50
2017-06-14T05:59:05.965Z,53.80
2017-06-14T06:01:34.063Z,53.70
2017-06-14T06:04:02.253Z,54.30
2017-06-14T06:06:30.353Z,53.60
2017-06-14T06:08:58.435Z,52.90
2017-06-14T06:11:26.531Z,53.30
2017-06-14T06:13:54.624Z,52.50
2017-06-14T06:16:22.708Z,52.80
2017-06-14T06:18:50.796Z,52.50
2017-06-14T06:21:18.883Z,52.60
2017-06-14T06:23:46.977Z,53.00
2017-06-14T06:26:15.063Z,51.80
2017-06-14T06:28:43.148Z,51.30
2017-06-14T06:31:11.248Z,51.70
2017-06-14T06:33:39.341Z,51.30
2017-06-14T06:36:07.423Z,51.20
2017-06-14T06:38:35.522Z,50.80
2017-06-14T06:41:03.613Z,50.60
2017-06-14T06:43:31.701Z,50.90
2017-06-14T06:45:59.795Z,48.70
2017-06-14T06:48:27.883Z,48.70
2017-06-14T06:50:55.975Z,47.50
2017-06-14T06:53:24.066Z,47.70
2017-06-14T06:55:52.155Z,47.90
2017-06-14T06:58:20.251Z,46.80
2017-06-14T07:00:48.357Z,45.70
2017-06-14T07:03:16.452Z,45.10
2017-06-14T07:05:44.543Z,46.20
2017-06-14T07:08:12.639Z,45.50
2017-06-14T07:10:40.728Z,45.70
2017-06-14T07:13:08.824Z,45.50
2017-06-14T07:15:36.915Z,44.80
2017-06-14T07:18:05.007Z,44.50
2017-06-14T07:20:33.105Z,44.70
2017-06-14T07:23:01.188Z,43.80
2017-06-14T07:25:29.273Z,43.10
2017-06-14T07:27:57.353Z,44.00
2017-06-14T07:30:25.445Z,42.40
2017-06-14T07:32:53.533Z,42.40
2017-06-14T07:35:21.639Z,42.60
2017-06-14T07:37:49.725Z,41.90
2017-06-14T07:40:18.688Z,41.30
2017-06-14T07:42:46.761Z,41.30
2017-06-14T07:45:14.856Z,41.60
2017-06-14T07:47:42.939Z,40.50
2017-06-14T07:50:11.030Z,43.80
2017-06-14T07:52:39.119Z,42.50
2017-06-14T07:55:07.209Z,40.80
2017-06-14T07:57:35.299Z,40.30
2017-06-14T08:00:03.386Z,39.10
2017-06-14T08:02:31.465Z,39.00
2017-06-14T08:04:59.548Z,38.80
2017-06-14T08:07:27.663Z,38.00
2017-06-14T08:09:55.751Z,38.30
2017-06-14T08:12:23.833Z,37.20
2017-06-14T08:14:51.923Z,37.90
2017-06-14T08:17:20.003Z,37.40
2017-06-14T08:19:48.090Z,36.60
2017-06-14T08:22:16.164Z,35.70
2017-06-14T08:24:44.263Z,37.20
2017-06-14T08:27:12.355Z,36.80
2017-06-14T08:29:40.443Z,36.90
2017-06-14T08:32:08.532Z,36.50
2017-06-14T08:34:36.615Z,35.00
2017-06-14T08:37:04.696Z,34.10
2017-06-14T08:39:32.779Z,34.10
2017-06-14T08:42:00.867Z,34.20
2017-06-14T08:44:28.944Z,33.30
2017-06-14T08:46:57.043Z,32.80
2017-06-14T08:49:25.127Z,34.60
2017-06-14T08:51:53.212Z,33.70
2017-06-14T08:54:21.293Z,33.20
2017-06-14T08:56:49.378Z,33.30
2017-06-14T08:59:17.451Z,33.20
2017-06-14T09:01:45.535Z,32.80
2017-06-14T09:04:13.611Z,32.70
2017-06-14T09:06:41.701Z,31.60
2017-06-14T09:09:09.776Z,30.00
2017-06-14T09:11:37.859Z,31.00
2017-06-14T09:14:05.937Z,30.00
2017-06-14T09:16:34.024Z,30.80
2017-06-14T09:19:02.112Z,31.10
2017-06-14T09:21:30.189Z,30.90
2017-06-14T09:23:58.271Z,29.60
2017-06-14T09:26:26.351Z,30.50
2017-06-14T09:28:54.441Z,30.90
2017-06-14T09:31:22.521Z,30.60
2017-06-14T09:33:50.612Z,29.80
2017-06-14T09:36:18.697Z,28.20
2017-06-14T09:38:46.779Z,32.90
2017-06-14T09:41:14.855Z,32.40
2017-06-14T09:43:42.937Z,32.30
2017-06-14T09:46:11.034Z,32.10
2017-06-14T09:48:39.111Z,33.80
2017-06-14T09:51:07.196Z,34.50
2017-06-14T09:53:35.283Z,31.50
2017-06-14T09:56:03.400Z,31.40
2017-06-14T09:58:31.779Z,31.40
2017-06-14T10:00:59.925Z,29.70
2017-06-14T10:03:28.114Z,29.50
2017-06-14T10:05:56.196Z,29.40
2017-06-14T10:08:24.280Z,28.60
2017-06-14T10:10:52.371Z,28.60
2017-06-14T10:13:20.461Z,29.50
2017-06-14T10:15:48.555Z,31.30
2017-06-14T10:18:16.651Z,32.90
2017-06-14T10:20:44.727Z,30.10
2017-06-14T10:23:12.811Z,29.40
2017-06-14T10:25:40.896Z,29.50
2017-06-14T10:28:08.974Z,28.60
2017-06-14T10:30:37.068Z,29.20
2017-06-14T10:33:05.152Z,31.70
2017-06-14T10:35:33.227Z,32.30
2017-06-14T10:38:01.320Z,29.20
2017-06-14T10:40:29.418Z,28.60
2017-06-14T10:42:57.495Z,28.90
2017-06-14T10:45:25.584Z,27.00
2017-06-14T10:47:53.664Z,28.10
2017-06-14T10:50:21.751Z,27.50
2017-06-14T10:52:49.841Z,27.90
2017-06-14T10:55:17.916Z,27.90
2017-06-14T10:57:46.007Z,26.60
2017-06-14T11:00:14.084Z,26.70
2017-06-14T11:02:42.179Z,27.00
2017-06-14T11:05:10.263Z,26.90
2017-06-14T11:07:38.350Z,27.50
2017-06-14T11:10:06.435Z,28.20
2017-06-14T11:12:34.512Z,28.40
2017-06-14T11:15:02.597Z,27.60
2017-06-14T11:17:30.691Z,27.40
2017-06-14T11:19:58.779Z,27.30
2017-06-14T11:22:26.864Z,27.70
2017-06-14T11:24:54.966Z,28.20
2017-06-14T11:27:23.035Z,26.60
2017-06-14T11:29:51.126Z,27.20
2017-06-14T11:32:19.221Z,27.00
2017-06-14T11:34:47.304Z,26.90
2017-06-14T11:37:15.383Z,28.30
2017-06-14T11:39:43.463Z,27.90
2017-06-14T11:42:11.553Z,28.30
2017-06-14T11:44:39.623Z,27.10
2017-06-14T11:47:07.715Z,27.50
2017-06-14T11:49:35.815Z,26.60
2017-06-14T11:52:07.687Z,27.30
2017-06-14T11:54:35.766Z,27.60
2017-06-14T11:57:03.857Z,26.20
2017-06-14T11:59:31.939Z,26.50
2017-06-14T12:02:00.028Z,25.00
2017-06-14T12:04:28.109Z,26.80
2017-06-14T12:06:56.184Z,24.70
2017-06-14T12:09:24.277Z,25.90
2017-06-14T12:11:52.382Z,25.60
2017-06-14T12:14:20.451Z,24.70
2017-06-14T12:16:48.532Z,25.60
2017-06-14T12:19:16.623Z,25.00
2017-06-14T12:21:44.719Z,25.50
2017-06-14T12:24:12.799Z,26.30
2017-06-14T12:26:40.901Z,27.80
2017-06-14T12:29:08.979Z,26.40
2017-06-14T12:31:37.060Z,24.70
2017-06-14T12:34:05.139Z,25.60
2017-06-14T12:36:33.237Z,25.70
2017-06-14T12:39:01.317Z,24.70
2017-06-14T12:41:29.391Z,25.40
2017-06-14T12:43:57.498Z,25.60
2017-06-14T12:46:25.665Z,26.00
2017-06-14T12:48:53.747Z,26.00
2017-06-14T12:51:21.827Z,26.50
2017-06-14T12:53:49.907Z,26.20
2017-06-14T12:56:17.996Z,26.40
2017-06-14T12:58:46.079Z,26.00
2017-06-14T13:01:14.169Z,25.60
2017-06-14T13:03:42.244Z,26.10
2017-06-14T13:06:10.327Z,26.50
2017-06-14T13:08:38.407Z,25.80
2017-06-14T13:11:06.495Z,24.60
2017-06-14T13:13:34.567Z,25.60
2017-06-14T13:16:02.668Z,28.50
2017-06-14T13:18:30.764Z,29.20
2017-06-14T13:20:58.839Z,28.40
2017-06-14T13:23:26.938Z,26.50
2017-06-14T13:25:55.045Z,26.60
2017-06-14T13:28:23.113Z,27.10
2017-06-14T13:30:51.180Z,26.30
2017-06-14T13:33:19.260Z,26.50
2017-06-14T13:35:47.331Z,26.50
2017-06-14T13:38:15.432Z,26.10
2017-06-14T13:40:43.513Z,25.80
2017-06-14T13:43:11.596Z,26.10
2017-06-14T13:45:39.675Z,26.40
2017-06-14T13:48:07.768Z,26.70
2017-06-14T13:50:35.858Z,27.70
2017-06-14T13:53:03.944Z,28.60
2017-06-14T13:55:32.052Z,28.20
2017-06-14T13:58:00.137Z,29.40
2017-06-14T14:00:28.223Z,29.00
2017-06-14T14:02:56.318Z,28.50
2017-06-14T14:05:24.411Z,29.00
2017-06-14T14:07:52.492Z,29.20
2017-06-14T14:10:20.563Z,29.70
2017-06-14T14:12:48.656Z,29.50
2017-06-14T14:15:16.727Z,29.80
2017-06-14T14:17:44.813Z,29.40
2017-06-14T14:20:12.889Z,29.30
2017-06-14T14:22:40.980Z,29.30
2017-06-14T14:25:09.064Z,29.50
2017-06-14T14:27:37.167Z,29.20
2017-06-14T14:30:05.266Z,29.60
2017-06-14T14:32:33.340Z,32.30
2017-06-14T14:35:01.419Z,33.10
2017-06-14T14:37:29.497Z,32.70
2017-06-14T14:39:57.679Z,31.10
2017-06-14T14:42:25.767Z,30.40
2017-06-14T14:44:53.844Z,29.80
2017-06-14T14:47:21.925Z,30.80
2017-06-14T14:49:50.028Z,30.40
2017-06-14T14:52:18.116Z,30.70
2017-06-14T14:54:46.242Z,30.80
2017-06-14T14:57:14.325Z,31.30
2017-06-14T14:59:42.430Z,30.60
2017-06-14T15:02:10.524Z,30.60
2017-06-14T15:04:38.593Z,30.60
2017-06-14T15:07:06.686Z,31.90
2017-06-14T15:09:34.767Z,32.40
2017-06-14T15:12:02.866Z,30.00
2017-06-14T15:14:30.936Z,31.40
2017-06-14T15:16:59.023Z,31.70
2017-06-14T15:19:27.114Z,31.90
2017-06-14T15:21:55.178Z,33.60
2017-06-14T15:24:23.265Z,33.90
2017-06-14T15:26:51.345Z,32.80
2017-06-14T15:29:19.431Z,33.00
2017-06-14T15:31:47.509Z,32.20
2017-06-14T15:34:15.592Z,33.00
2017-06-14T15:36:43.673Z,33.70
2017-06-14T15:39:11.768Z,33.20
2017-06-14T15:41:39.844Z,32.80
2017-06-14T15:44:07.928Z,33.40
2017-06-14T15:46:36.026Z,33.50
2017-06-14T15:49:04.101Z,33.70
2017-06-14T15:51:32.183Z,34.30
2017-06-14T15:54:00.256Z,33.30
2017-06-14T15:56:28.349Z,33.20
2017-06-14T15:58:56.425Z,33.70
2017-06-14T16:01:24.504Z,33.50
2017-06-14T16:03:52.596Z,33.20
2017-06-14T16:06:20.675Z,33.30
2017-06-14T16:08:48.760Z,33.70
2017-06-14T16:11:16.839Z,33.20
2017-06-14T16:13:44.927Z,33.40
2017-06-14T16:16:12.999Z,33.70
2017-06-14T16:18:41.113Z,33.50
2017-06-14T16:21:10.324Z,33.10
2017-06-14T16:23:38.411Z,33.10
2017-06-14T16:26:06.491Z,32.70
2017-06-14T16:28:34.586Z,33.40
2017-06-14T16:31:02.667Z,32.90
2017-06-14T16:33:30.753Z,32.90
2017-06-14T16:35:58.840Z,32.80
2017-06-14T16:38:26.979Z,33.30
2017-06-14T16:40:55.075Z,33.50
2017-06-14T16:43:23.163Z,33.90
2017-06-14T16:45:51.244Z,33.90
2017-06-14T16:48:19.348Z,33.70
2017-06-14T16:50:47.424Z,33.30
2017-06-14T16:53:15.514Z,34.00
2017-06-14T16:55:43.595Z,33.10
2017-06-14T16:58:11.695Z,33.60
2017-06-14T17:00:39.804Z,33.60
2017-06-14T17:03:07.883Z,33.10
2017-06-14T17:05:35.967Z,33.30
2017-06-14T17:08:04.069Z,33.30
2017-06-14T17:10:32.163Z,33.80
2017-06-14T17:13:00.248Z,33.60
2017-06-14T17:15:28.330Z,34.40
2017-06-14T17:17:56.409Z,34.20
2017-06-14T17:20:24.480Z,34.00
2017-06-14T17:22:52.563Z,33.80
2017-06-14T17:25:20.652Z,34.30
2017-06-14T17:27:48.728Z,34.70
2017-06-14T17:30:16.827Z,34.30
2017-06-14T17:32:44.911Z,34.40
2017-06-14T17:35:12.990Z,34.90
2017-06-14T17:37:42.100Z,34.40
2017-06-14T17:40:10.254Z,34.30
2017-06-14T17:42:38.356Z,34.30
2017-06-14T17:45:06.436Z,34.00
2017-06-14T17:47:34.534Z,34.70
2017-06-14T17:50:02.608Z,35.50
2017-06-14T17:52:30.712Z,35.20
2017-06-14T17:54:59.569Z,36.40
2017-06-14T17:57:27.649Z,36.40
2017-06-14T17:59:55.767Z,37.00
2017-06-14T18:02:23.851Z,37.50
2017-06-14T18:04:51.937Z,37.70
2017-06-14T18:07:20.023Z,38.00
2017-06-14T18:09:48.116Z,37.90
2017-06-14T18:12:16.203Z,38.00
2017-06-14T18:14:44.308Z,37.70
2017-06-14T18:17:12.388Z,38.10
2017-06-14T18:19:40.471Z,38.50
2017-06-14T18:22:08.777Z,38.30
2017-06-14T18:24:36.848Z,38.60
2017-06-14T18:30:01.809Z,39.10
2017-06-14T18:32:29.901Z,39.10
2017-06-14T18:34:57.987Z,39.30
2017-06-14T18:37:26.071Z,39.20
2017-06-14T18:39:54.168Z,39.30
2017-06-14T18:42:22.309Z,39.30
2017-06-14T18:44:50.393Z,39.50
2017-06-14T18:47:18.473Z,39.90
2017-06-14T18:49:46.554Z,40.40
2017-06-14T18:52:14.635Z,40.20
2017-06-14T18:54:43.048Z,40.50
2017-06-14T18:57:11.162Z,41.80
2017-06-14T18:59:39.257Z,41.50
2017-06-14T19:02:07.332Z,41.60
2017-06-14T19:04:35.427Z,41.90
2017-06-14T19:07:04.172Z,42.10
2017-06-14T19:09:32.255Z,43.30
2017-06-14T19:12:00.340Z,44.10
2017-06-14T19:14:28.428Z,44.80
2017-06-14T19:16:56.507Z,47.40
2017-06-14T19:19:24.579Z,48.80
2017-06-14T19:21:52.687Z,50.30
2017-06-14T19:24:20.755Z,50.10
2017-06-14T19:26:54.500Z,50.50
2017-06-14T19:29:22.579Z,51.20
2017-06-14T19:31:50.665Z,50.00
2017-06-14T19:34:18.795Z,51.00
2017-06-14T19:36:46.892Z,52.50
2017-06-14T19:39:14.969Z,54.30
2017-06-14T19:41:43.079Z,53.30
2017-06-14T19:44:11.168Z,57.50
2017-06-14T19:46:39.267Z,61.50
2017-06-14T19:49:07.347Z,60.40
2017-06-14T19:51:35.440Z,60.10
2017-06-14T19:54:03.537Z,61.40
2017-06-14T19:56:31.607Z,53.70
2017-06-14T19:58:59.699Z,57.70
2017-06-14T20:01:27.797Z,58.60
2017-06-14T20:03:55.883Z,57.40
2017-06-14T20:06:23.964Z,56.60
2017-06-14T20:08:52.047Z,55.10
2017-06-14T20:11:20.151Z,54.80
2017-06-14T20:13:48.236Z,56.50
2017-06-14T20:16:16.317Z,56.30
2017-06-14T20:18:44.467Z,55.10
2017-06-14T20:21:12.538Z,56.50
2017-06-14T20:23:40.676Z,55.10
2017-06-14T20:26:08.751Z,59.40
2017-06-14T20:28:36.843Z,58.30
2017-06-14T20:31:04.935Z,59.10
2017-06-14T20:33:33.108Z,58.60
2017-06-14T20:36:01.204Z,55.30
2017-06-14T20:38:29.319Z,56.90
2017-06-14T20:40:57.395Z,58.10
2017-06-14T20:43:25.487Z,57.30
2017-06-14T20:45:53.565Z,57.90
2017-06-14T20:48:21.657Z,57.90
2017-06-14T20:50:49.748Z,57.60
2017-06-14T20:53:18.631Z,57.10
2017-06-14T20:55:46.717Z,56.10
2017-06-14T20:58:14.814Z,55.90
2017-06-14T21:00:42.901Z,57.10
2017-06-14T21:03:10.989Z,55.70
2017-06-14T21:05:39.055Z,56.80
2017-06-14T21:08:07.140Z,56.60
2017-06-14T21:10:35.227Z,57.00
2017-06-14T21:13:03.303Z,58.00
2017-06-14T21:15:31.392Z,57.10
2017-06-14T21:17:59.472Z,58.20
2017-06-14T21:20:27.551Z,57.80
2017-06-14T21:22:55.740Z,57.30
2017-06-14T21:25:23.824Z,58.10
2017-06-14T21:27:51.906Z,58.00
2017-06-14T21:30:19.976Z,58.40
2017-06-14T21:32:48.057Z,58.70
2017-06-14T21:35:16.137Z,58.80
2017-06-14T21:37:44.223Z,58.70
2017-06-14T21:40:12.308Z,58.20
2017-06-14T21:42:40.391Z,57.70
2017-06-14T21:45:08.471Z,59.10
2017-06-14T21:47:36.556Z,58.20
2017-06-14T21:50:04.634Z,58.30
2017-06-14T21:52:32.722Z,59.60
2017-06-14T21:55:00.847Z,59.90
2017-06-14T21:57:28.933Z,58.30
2017-06-14T21:59:57.015Z,59.40
2017-06-14T22:02:25.087Z,59.10
2017-06-14T22:04:53.196Z,59.70
2017-06-14T22:07:21.267Z,59.50
2017-06-14T22:09:49.358Z,59.10
2017-06-14T22:12:17.447Z,60.10
2017-06-14T22:14:45.537Z,60.60
2017-06-14T22:17:13.622Z,60.80
2017-06-14T22:19:41.700Z,61.30
2017-06-14T22:22:09.786Z,60.80
2017-06-14T22:24:37.863Z,60.60
2017-06-14T22:27:05.940Z,61.00
2017-06-14T22:29:34.028Z,60.80
2017-06-14T22:32:02.132Z,59.40
2017-06-14T22:34:30.213Z,59.10
2017-06-14T22:36:58.299Z,60.10
2017-06-14T22:39:26.427Z,60.50
2017-06-14T22:41:54.899Z,60.90
2017-06-14T22:44:23.202Z,60.90
2017-06-14T22:46:51.271Z,61.90
2017-06-14T22:49:19.358Z,60.50
2017-06-14T22:51:47.477Z,62.00
2017-06-14T22:54:15.539Z,59.20
2017-06-14T22:56:43.649Z,60.80
2017-06-14T22:59:11.794Z,61.60
2017-06-14T23:01:39.875Z,62.50
2017-06-14T23:04:08.027Z,62.30
2017-06-14T23:06:36.151Z,62.30
2017-06-14T23:09:04.471Z,62.10
2017-06-14T23:11:32.565Z,62.30
2017-06-14T23:14:00.704Z,62.70
2017-06-14T23:16:28.804Z,63.00
2017-06-14T23:18:56.970Z,62.00
2017-06-14T23:21:25.211Z,62.20
2017-06-14T23:23:53.468Z,62.90
2017-06-14T23:26:21.618Z,63.40
2017-06-14T23:28:49.883Z,62.20
2017-06-14T23:31:18.078Z,62.00
2017-06-14T23:33:46.362Z,63.20
2017-06-14T23:36:14.440Z,63.00
2017-06-14T23:38:42.572Z,63.80
2017-06-14T23:41:10.735Z,63.40
2017-06-14T23:43:38.811Z,63.70
2017-06-14T23:46:07.137Z,63.80
2017-06-14T23:48:35.297Z,63.60
2017-06-14T23:51:03.377Z,63.40
2017-06-14T23:53:31.448Z,63.40
2017-06-14T23:55:59.530Z,63.80
2017-06-14T23:58:27.608Z,63.70
